メインページ
METAR-TAF:

METAR-TAF

空港 :

セントジョンズ, ニューファンドランド・ラブラドール州, カナダ

セントジョンズ国際空港

緯度: 47-37N, 経度: 052-44W, 海抜: 134m

現時点の気象観測

当レポートは1時間11分前の10:00(UTC)に作成
南西の風 17kt、最大22ktの突風を伴う
気温 13°C
湿度 88%
気圧 1024 hPa
視程: 24.1km
高度2000ftの雲はほとんどない
高度12000ftの雲はほとんどない
高度22000ftの雲は散在している

METAR: CYYT 201000Z 23017G22KT 15SM FEW020 FEW120 SCT220 13/11 A3024 RMK SC1AC1CI1 SLP244

時間: 08:41 (11:11 UTC)

予報

当レポートは5時間33分前の05:38(UTC)に作成
予報は20日の 06時(UTC)から 21日の 06時(UTC)まで有効
西/南西の風 12kt、最大22ktの突風を伴う
視程: 10km
高度2000ftの雲はほとんどない
高度2500ftの千切れ雲あり
20日の 06時(UTC)から 20日の 08時(UTC)まで一時的に
高度2000ftの千切れ雲あり
高度2500ftの曇り
20日の 0800時(UTC)から
西/南西の風 15kt
視程: 10km
高度2000ftの雲はほとんどない
高度8000ftの雲は散在している
20日の 1500時(UTC)から
南西の風 15kt、最大25ktの突風を伴う
視程: 10km
高度2000ftの雲は散在している
高度8000ftの曇り
20日の 2000時(UTC)から
南西の風 15kt、最大25ktの突風を伴う
視程: 10km
高度2000ftの曇り
小雨
21日の 0200時(UTC)から
南西の風 15kt
視程: 6.4km
高度800ftの曇り
弱いにわか雨, 靄
21日の 0400時(UTC)から
西の風 15kt
視程: 1.6km
高度300ftの千切れ雲あり
弱いにわか雨, 靄

TAF: CYYT 200538Z 2006/2106 24012G22KT P6SM FEW020 BKN025 TEMPO 2006/2008 BKN020 OVC025 FM200800 24015KT P6SM FEW020 SCT080 FM201500 23015G25KT P6SM SCT020 OVC080 FM202000 23015G25KT P6SM -RA OVC020 FM210200 22015KT 4SM -SHRA BR OVC008 FM210400 28015KT 1SM -SHRA BR BKN003 RMK NXT FCST BY 201200Z

4,000以上の空港の気象観測と天気予報(METAR報とTAF報)

利用可能な観測所は地図上に黄色い丸と赤い丸で示す。

丸の上にカーソルを重ねると観測所名を参照できる。

次にクリックすると気象観測と天気予報を参照できる。

マップの切り替え:黒色「×」印の緑ボタンをクリックして拡大、「-」印の緑ボタンをクリックして縮小、緑色の三角印をクリックして隣りの地図に切り替え


METAR-TAF: